Time;durP1;ratioP1;P1;durP2;ratioP2;P2;SDS_P1;SDS_P2;PMS_P1;PMS_P2;Temp;Humidity;BMP_temperature;BMP_pressure;BME280_temperature;BME280_humidity;BME280_pressure;Samples;Min_cycle;Max_cycle;Signal;HPM_P1;HPM_P2
2023/12/02 00:00:44;;;;;;;57.35;26.13;;;1.50;95.00;;;;;;6224129;28;20506;-79
2023/12/02 00:03:46;;;;;;;73.97;31.73;;;1.50;95.00;;;;;;6217685;28;20691;-77
2023/12/02 00:06:48;;;;;;;75.60;34.13;;;1.40;94.80;;;;;;6218733;28;20524;-79
2023/12/02 00:09:51;;;;;;;89.68;35.15;;;1.40;94.90;;;;;;6190031;28;20415;-78
2023/12/02 00:12:52;;;;;;;70.45;32.92;;;1.40;94.90;;;;;;6217345;28;20058;-79
2023/12/02 00:15:54;;;;;;;54.00;23.45;;;1.30;94.90;;;;;;6218972;28;20038;-78
2023/12/02 00:18:56;;;;;;;66.28;33.17;;;1.30;94.90;;;;;;6219056;28;20491;-78
2023/12/02 00:21:58;;;;;;;71.47;31.33;;;1.30;94.90;;;;;;6217833;28;20054;-78
2023/12/02 00:25:01;;;;;;;80.55;31.58;;;1.30;94.90;;;;;;6190610;28;20043;-78
2023/12/02 00:28:03;;;;;;;62.03;27.30;;;1.30;95.00;;;;;;6217348;28;20050;-78
2023/12/02 00:31:05;;;;;;;75.85;33.13;;;1.30;95.30;;;;;;6218154;28;20053;-78
2023/12/02 00:34:07;;;;;;;70.90;31.92;;;1.30;95.00;;;;;;6217335;28;20050;-79
2023/12/02 00:37:09;;;;;;;64.53;30.33;;;1.30;95.00;;;;;;6217379;28;20049;-79
2023/12/02 00:40:12;;;;;;;60.42;28.33;;;1.30;95.00;;;;;;6214489;28;20049;-79
2023/12/02 00:43:14;;;;;;;79.55;33.22;;;1.30;95.00;;;;;;6218064;28;20045;-78
2023/12/02 00:46:15;;;;;;;64.63;30.45;;;1.30;95.00;;;;;;6216745;28;20050;-79
2023/12/02 00:49:17;;;;;;;59.08;32.63;;;1.30;95.00;;;;;;6218558;28;20065;-79
2023/12/02 00:52:19;;;;;;;65.13;30.92;;;1.20;95.00;;;;;;6216205;28;20060;-79
2023/12/02 00:55:22;;;;;;;58.70;28.33;;;1.30;95.00;;;;;;6216902;28;20046;-78
2023/12/02 00:58:23;;;;;;;69.30;32.20;;;1.30;95.00;;;;;;6216453;28;20042;-78
2023/12/02 01:01:25;;;;;;;76.50;34.15;;;1.30;95.00;;;;;;6248364;22;20072;-82
2023/12/02 01:04:27;;;;;;;80.25;36.20;;;1.30;95.00;;;;;;6262833;28;20049;-82
2023/12/02 01:07:28;;;;;;;74.20;33.65;;;1.30;95.00;;;;;;6257525;28;20052;-81
2023/12/02 01:10:31;;;;;;;78.32;35.30;;;1.30;95.00;;;;;;6257798;28;20045;-81
2023/12/02 01:13:33;;;;;;;56.42;29.25;;;1.30;95.00;;;;;;6252903;28;20048;-81
2023/12/02 01:16:35;;;;;;;63.83;25.55;;;1.30;94.90;;;;;;6257896;28;20045;-81
2023/12/02 01:19:36;;;;;;;68.53;32.28;;;1.30;94.90;;;;;;6261957;28;20045;-81
2023/12/02 01:22:38;;;;;;;64.93;30.40;;;1.20;94.90;;;;;;6249468;28;20037;-81
2023/12/02 01:25:41;;;;;;;60.75;28.33;;;1.20;94.80;;;;;;6250038;28;20044;-81
2023/12/02 01:28:43;;;;;;;82.00;33.22;;;1.10;94.80;;;;;;6250213;28;20056;-82
2023/12/02 01:31:44;;;;;;;77.45;33.47;;;1.10;94.90;;;;;;6261190;28;20041;-82
2023/12/02 01:34:47;;;;;;;73.65;32.95;;;1.20;95.00;;;;;;6258002;28;20041;-82
2023/12/02 01:37:48;;;;;;;74.95;32.58;;;1.10;94.90;;;;;;6248610;28;20527;-82
2023/12/02 01:40:51;;;;;;;80.38;36.17;;;1.10;94.90;;;;;;6249171;28;20045;-82
2023/12/02 01:43:53;;;;;;;67.65;34.55;;;1.10;94.80;;;;;;6248724;28;20045;-82
2023/12/02 01:46:55;;;;;;;82.28;36.75;;;1.20;94.90;;;;;;6248236;28;20407;-82
2023/12/02 01:49:59;;;;;;;77.43;31.55;;;1.10;94.90;;;;;;6248776;28;20056;-82
2023/12/02 01:53:01;;;;;;;87.35;35.03;;;1.10;94.80;;;;;;6248205;28;20060;-81
2023/12/02 01:56:05;;;;;;;86.15;36.03;;;1.10;94.80;;;;;;6262375;28;20167;-81
2023/12/02 01:59:07;;;;;;;82.25;36.15;;;1.10;94.90;;;;;;6248151;28;20427;-81
2023/12/02 02:02:09;;;;;;;83.30;36.47;;;1.10;94.90;;;;;;6255881;28;20048;-81
2023/12/02 02:05:10;;;;;;;73.93;34.55;;;1.10;94.90;;;;;;6248490;28;20041;-81
2023/12/02 02:08:12;;;;;;;82.82;33.20;;;1.00;94.80;;;;;;6247054;28;20056;-82
2023/12/02 02:11:15;;;;;;;74.22;32.55;;;1.00;94.90;;;;;;6238472;28;20060;-82
2023/12/02 02:14:17;;;;;;;69.50;32.95;;;1.10;94.90;;;;;;6239397;28;20045;-82
2023/12/02 02:17:18;;;;;;;79.32;35.08;;;1.10;94.90;;;;;;6250741;28;20050;-82
2023/12/02 02:20:21;;;;;;;84.95;36.72;;;1.00;94.80;;;;;;6257414;28;20045;-82
2023/12/02 02:23:24;;;;;;;80.45;35.38;;;1.00;94.90;;;;;;6248337;28;20510;-82
2023/12/02 02:26:26;;;;;;;80.35;35.08;;;1.00;94.90;;;;;;6248280;28;20140;-82
2023/12/02 02:29:27;;;;;;;75.10;30.48;;;1.00;94.90;;;;;;6257490;28;20250;-81
2023/12/02 02:32:29;;;;;;;73.28;32.50;;;1.00;94.90;;;;;;6249951;28;20049;-82
2023/12/02 02:35:32;;;;;;;73.30;32.90;;;0.90;94.90;;;;;;6256437;28;20049;-81
2023/12/02 02:38:35;;;;;;;77.75;36.25;;;0.90;94.90;;;;;;6254490;28;20041;-82
2023/12/02 02:41:37;;;;;;;75.60;34.67;;;0.90;94.90;;;;;;6248684;28;20060;-82
2023/12/02 02:44:39;;;;;;;75.10;33.20;;;0.90;94.90;;;;;;6251009;28;20046;-82
2023/12/02 02:47:41;;;;;;;70.18;29.35;;;0.90;94.90;;;;;;6250862;28;20041;-82
2023/12/02 02:50:43;;;;;;;85.45;38.00;;;0.90;94.90;;;;;;6251292;28;20120;-82
2023/12/02 02:53:45;;;;;;;72.15;33.97;;;0.80;94.90;;;;;;6255246;28;20049;-82
2023/12/02 02:56:47;;;;;;;80.55;34.97;;;0.80;95.00;;;;;;6263415;28;20041;-82
2023/12/02 02:59:49;;;;;;;74.15;34.85;;;0.90;95.00;;;;;;6250548;28;20045;-82
2023/12/02 03:02:51;;;;;;;84.75;37.60;;;0.90;95.00;;;;;;6258124;28;20075;-82
2023/12/02 03:05:52;;;;;;;78.28;35.15;;;0.90;95.00;;;;;;6249396;28;20049;-81
2023/12/02 03:08:55;;;;;;;72.13;33.13;;;0.90;95.00;;;;;;6258717;28;20077;-82
2023/12/02 03:11:57;;;;;;;74.25;32.80;;;0.90;94.90;;;;;;6248632;28;20048;-82
2023/12/02 03:14:59;;;;;;;77.30;36.15;;;0.90;94.90;;;;;;6249431;28;20576;-82
2023/12/02 03:18:00;;;;;;;65.70;30.30;;;0.90;94.90;;;;;;6249121;28;20049;-82
2023/12/02 03:21:02;;;;;;;69.60;33.28;;;0.90;95.00;;;;;;6247787;28;20061;-82
2023/12/02 03:24:07;;;;;;;73.45;31.38;;;0.80;95.00;;;;;;6246286;28;20056;-83
2023/12/02 03:27:09;;;;;;;68.55;33.10;;;0.90;95.00;;;;;;6246671;28;20050;-82
2023/12/02 03:30:12;;;;;;;62.25;30.25;;;0.90;95.00;;;;;;6247104;28;20064;-83
2023/12/02 03:33:14;;;;;;;73.00;33.35;;;0.80;95.00;;;;;;6247881;28;20067;-82
2023/12/02 03:36:15;;;;;;;55.97;28.33;;;0.80;95.00;;;;;;6254604;28;20053;-82
2023/12/02 03:39:19;;;;;;;72.63;31.83;;;0.70;94.90;;;;;;6246876;28;20049;-82
2023/12/02 03:42:20;;;;;;;66.25;31.70;;;0.70;94.90;;;;;;6239107;28;20120;-82
2023/12/02 03:45:22;;;;;;;62.22;30.30;;;0.70;94.90;;;;;;6255844;28;20502;-82
2023/12/02 03:48:24;;;;;;;58.65;28.13;;;0.70;95.00;;;;;;6255178;28;20053;-83
2023/12/02 03:51:25;;;;;;;60.15;27.98;;;0.70;95.00;;;;;;6254492;28;20051;-83
2023/12/02 03:54:28;;;;;;;60.45;29.33;;;0.70;95.00;;;;;;6255181;28;20045;-83
2023/12/02 03:57:30;;;;;;;56.53;26.02;;;0.70;95.00;;;;;;6263423;28;20049;-82
2023/12/02 04:00:32;;;;;;;58.72;29.65;;;0.70;95.00;;;;;;6260333;28;20065;-82
2023/12/02 04:03:34;;;;;;;49.55;28.02;;;0.70;95.00;;;;;;6255439;28;20052;-82
2023/12/02 04:06:35;;;;;;;52.88;29.15;;;0.70;95.00;;;;;;6252947;28;20045;-82
2023/12/02 04:09:38;;;;;;;49.03;25.20;;;0.70;95.00;;;;;;6253225;28;20624;-81
2023/12/02 04:12:40;;;;;;;49.40;25.85;;;0.60;95.00;;;;;;6254645;28;20604;-81
2023/12/02 04:15:42;;;;;;;47.45;24.00;;;0.60;94.90;;;;;;6253612;28;20521;-81
2023/12/02 04:18:44;;;;;;;45.85;24.92;;;0.60;95.00;;;;;;6256170;28;20426;-81
2023/12/02 04:21:46;;;;;;;44.17;24.70;;;0.60;95.00;;;;;;6255268;28;20554;-82
2023/12/02 04:24:49;;;;;;;50.10;26.98;;;0.60;95.00;;;;;;6256137;28;20053;-81
2023/12/02 04:27:51;;;;;;;44.13;25.20;;;0.60;95.00;;;;;;6252040;28;20041;-81
2023/12/02 04:30:53;;;;;;;47.97;25.23;;;0.50;94.90;;;;;;6250608;28;20084;-81
2023/12/02 04:33:54;;;;;;;55.47;29.13;;;0.50;94.90;;;;;;6250276;28;20049;-80
2023/12/02 04:36:58;;;;;;;48.67;27.10;;;0.50;94.90;;;;;;6253040;28;20046;-81
2023/12/02 04:40:04;;;;;;;47.80;28.20;;;0.40;94.90;;;;;;6256024;28;20166;-80
2023/12/02 04:43:06;;;;;;;43.22;26.00;;;0.40;94.90;;;;;;6266697;28;20126;-81
2023/12/02 04:46:07;;;;;;;34.50;22.13;;;0.40;95.00;;;;;;6259316;28;20421;-81
2023/12/02 04:49:13;;;;;;;41.77;22.67;;;0.40;95.00;;;;;;6259218;28;20051;-81
2023/12/02 04:52:15;;;;;;;42.70;26.27;;;0.40;94.90;;;;;;6252336;28;20429;-80
2023/12/02 04:55:18;;;;;;;38.93;22.93;;;0.40;95.00;;;;;;6260681;28;20525;-81
2023/12/02 04:58:19;;;;;;;37.17;21.83;;;0.40;94.90;;;;;;6250789;28;20053;-81
2023/12/02 05:01:21;;;;;;;31.57;18.13;;;0.40;94.90;;;;;;6249265;28;20557;-81
2023/12/02 05:04:22;;;;;;;31.87;19.33;;;0.40;94.90;;;;;;6258438;28;20049;-80
2023/12/02 05:07:24;;;;;;;15.27;12.20;;;0.30;94.80;;;;;;6251070;28;20044;-81
2023/12/02 05:10:27;;;;;;;31.23;21.50;;;0.30;94.90;;;;;;6259028;28;20049;-81
2023/12/02 05:13:29;;;;;;;29.87;17.90;;;0.30;94.90;;;;;;6250455;28;20049;-81
2023/12/02 05:16:31;;;;;;;30.27;21.07;;;0.30;94.90;;;;;;6254302;28;20048;-81
2023/12/02 05:19:33;;;;;;;33.92;19.73;;;0.40;95.00;;;;;;6250951;28;20132;-81
2023/12/02 05:22:34;;;;;;;30.60;19.63;;;0.40;95.00;;;;;;6257781;28;20049;-81
2023/12/02 05:25:37;;;;;;;22.85;15.40;;;0.40;95.00;;;;;;6252557;28;20046;-81
2023/12/02 05:28:39;;;;;;;25.75;16.25;;;0.40;94.90;;;;;;6263869;28;20045;-81
2023/12/02 05:31:41;;;;;;;25.92;15.90;;;0.40;94.90;;;;;;6249023;28;20045;-81
2023/12/02 05:34:43;;;;;;;25.35;15.13;;;0.40;94.90;;;;;;6249640;28;20060;-81
2023/12/02 05:37:45;;;;;;;20.05;14.27;;;0.40;94.90;;;;;;6249929;28;20053;-81
2023/12/02 05:40:48;;;;;;;24.63;14.80;;;0.30;94.90;;;;;;6249106;28;20068;-82
2023/12/02 05:43:49;;;;;;;18.50;12.23;;;0.30;94.80;;;;;;6248426;28;20052;-83
2023/12/02 05:46:51;;;;;;;17.07;12.43;;;0.30;94.90;;;;;;6248695;28;20041;-81
2023/12/02 05:49:53;;;;;;;21.33;11.75;;;0.20;94.80;;;;;;6248562;28;20076;-82
2023/12/02 05:52:55;;;;;;;19.90;13.68;;;0.30;94.90;;;;;;6249750;28;20075;-81
2023/12/02 05:55:58;;;;;;;18.80;13.65;;;0.20;94.90;;;;;;6257422;28;20071;-81
2023/12/02 05:58:59;;;;;;;21.75;14.48;;;0.20;94.90;;;;;;6248244;28;20041;-81
2023/12/02 06:02:01;;;;;;;17.48;12.10;;;0.20;94.90;;;;;;6256134;28;20061;-81
2023/12/02 06:05:03;;;;;;;20.43;12.80;;;0.20;94.90;;;;;;6247923;28;20049;-81
2023/12/02 06:08:05;;;;;;;17.70;13.23;;;0.20;94.90;;;;;;6253175;28;20045;-81
2023/12/02 06:11:08;;;;;;;22.25;14.07;;;0.20;94.90;;;;;;6250340;28;20049;-81
2023/12/02 06:14:10;;;;;;;18.60;11.40;;;0.20;94.80;;;;;;6249207;28;20053;-81
2023/12/02 06:17:12;;;;;;;20.40;12.13;;;0.20;94.90;;;;;;6249459;28;20498;-81
2023/12/02 06:20:14;;;;;;;17.52;12.38;;;0.20;94.90;;;;;;6247592;28;20888;-81
2023/12/02 06:23:15;;;;;;;19.95;13.40;;;0.20;94.80;;;;;;6247572;28;20418;-79
2023/12/02 06:26:18;;;;;;;16.47;12.03;;;0.20;94.80;;;;;;6246952;28;20042;-79
2023/12/02 06:29:20;;;;;;;20.90;13.07;;;0.20;94.90;;;;;;6247452;28;20053;-80
2023/12/02 06:32:22;;;;;;;24.47;12.03;;;0.20;94.90;;;;;;6246448;28;20049;-79
2023/12/02 06:35:23;;;;;;;22.80;14.00;;;0.20;94.80;;;;;;6246589;28;20041;-79
2023/12/02 06:38:25;;;;;;;20.00;15.50;;;0.20;94.90;;;;;;6247636;28;20410;-80
2023/12/02 06:41:28;;;;;;;16.83;11.75;;;0.20;94.90;;;;;;6254736;28;20045;-80
2023/12/02 06:44:30;;;;;;;18.57;10.53;;;0.20;94.80;;;;;;6238571;28;20136;-80
2023/12/02 06:47:31;;;;;;;16.87;11.97;;;0.20;94.90;;;;;;6246975;28;20080;-80
2023/12/02 06:50:33;;;;;;;20.73;12.48;;;0.20;94.80;;;;;;6246457;28;20425;-79
2023/12/02 06:53:35;;;;;;;22.45;12.85;;;0.20;94.80;;;;;;6248841;28;20075;-79
2023/12/02 06:56:38;;;;;;;21.83;13.23;;;0.20;94.80;;;;;;6248037;28;20045;-80
2023/12/02 06:59:40;;;;;;;21.38;12.32;;;0.20;94.80;;;;;;6248702;28;20058;-81
2023/12/02 07:02:42;;;;;;;18.63;11.37;;;0.20;95.10;;;;;;6247837;22;20192;-79
2023/12/02 07:05:44;;;;;;;16.33;11.88;;;0.20;94.80;;;;;;6215137;28;20503;-79
2023/12/02 07:08:46;;;;;;;17.77;12.93;;;0.20;94.70;;;;;;6234671;28;20049;-80
2023/12/02 07:11:49;;;;;;;22.43;12.60;;;0.20;94.70;;;;;;6219373;28;20050;-80
2023/12/02 07:14:50;;;;;;;17.52;11.73;;;0.20;94.70;;;;;;6183813;28;20058;-80
2023/12/02 07:17:52;;;;;;;18.77;11.80;;;0.20;94.70;;;;;;6194688;28;20392;-79
2023/12/02 07:20:53;;;;;;;19.77;13.70;;;0.20;94.70;;;;;;6196693;28;20065;-79
2023/12/02 07:23:55;;;;;;;15.93;11.80;;;0.20;94.70;;;;;;6200161;28;20042;-80
2023/12/02 07:26:58;;;;;;;16.67;11.80;;;0.30;95.00;;;;;;6186560;28;20039;-79
2023/12/02 07:30:00;;;;;;;21.45;13.13;;;0.20;94.70;;;;;;6175249;28;20043;-79
2023/12/02 07:33:02;;;;;;;16.20;10.95;;;0.30;94.70;;;;;;6175911;28;20066;-79
2023/12/02 07:36:04;;;;;;;17.20;11.27;;;0.30;94.70;;;;;;6180433;28;20043;-79
2023/12/02 07:39:06;;;;;;;19.45;12.88;;;0.30;94.70;;;;;;6188173;28;20079;-79
2023/12/02 07:42:09;;;;;;;19.23;13.10;;;0.30;94.70;;;;;;6210389;28;20056;-79
2023/12/02 07:45:11;;;;;;;16.65;12.05;;;0.30;94.60;;;;;;6193838;28;20074;-79
2023/12/02 07:48:12;;;;;;;15.32;11.23;;;0.40;94.70;;;;;;6195107;28;20051;-79
2023/12/02 07:51:14;;;;;;;17.88;11.73;;;0.40;94.70;;;;;;6199019;28;20047;-78
2023/12/02 07:54:16;;;;;;;16.73;10.73;;;0.40;94.60;;;;;;6187963;28;20057;-79
2023/12/02 07:57:19;;;;;;;19.33;11.25;;;0.40;94.60;;;;;;6189486;28;20368;-78
2023/12/02 08:00:21;;;;;;;16.48;10.73;;;0.40;94.60;;;;;;6199711;28;20064;-79
2023/12/02 08:03:23;;;;;;;17.05;12.00;;;0.50;94.60;;;;;;6198234;28;20082;-79
2023/12/02 08:06:25;;;;;;;17.90;13.02;;;0.50;94.60;;;;;;6186255;28;20563;-79
2023/12/02 08:09:27;;;;;;;27.33;23.40;;;0.50;94.60;;;;;;6193165;28;20422;-79
2023/12/02 08:12:29;;;;;;;58.83;45.15;;;0.50;94.60;;;;;;6196268;28;20091;-79
2023/12/02 08:15:31;;;;;;;16.95;12.77;;;0.60;94.60;;;;;;6210561;28;20077;-79
2023/12/02 08:18:33;;;;;;;19.40;13.63;;;0.60;94.90;;;;;;6194667;28;20522;-79
2023/12/02 08:21:36;;;;;;;16.95;14.45;;;0.60;94.50;;;;;;6193877;28;20487;-79
2023/12/02 08:24:42;;;;;;;14.73;11.38;;;0.70;94.50;;;;;;6187923;28;20047;-79
2023/12/02 08:27:45;;;;;;;12.50;9.43;;;0.70;94.40;;;;;;6196488;28;20057;-79
2023/12/02 08:30:47;;;;;;;18.63;12.32;;;0.70;94.50;;;;;;6195270;28;20054;-79
2023/12/02 08:33:49;;;;;;;16.92;12.45;;;0.70;94.50;;;;;;6163448;28;20416;-80
2023/12/02 08:36:52;;;;;;;14.63;9.90;;;0.70;94.50;;;;;;6201386;28;20136;-79
2023/12/02 08:39:54;;;;;;;16.65;11.15;;;0.70;94.40;;;;;;6206347;28;20550;-80
2023/12/02 08:42:57;;;;;;;14.18;9.93;;;0.70;94.40;;;;;;6204515;28;20046;-79
2023/12/02 08:45:59;;;;;;;13.05;11.00;;;0.70;94.40;;;;;;6209163;28;20041;-81
2023/12/02 08:49:00;;;;;;;12.07;9.40;;;0.80;94.40;;;;;;6206596;28;20069;-80
2023/12/02 08:52:02;;;;;;;14.38;9.70;;;0.80;94.30;;;;;;6189535;28;20058;-80
2023/12/02 08:55:05;;;;;;;15.50;11.10;;;0.70;94.30;;;;;;6198572;28;20057;-80
2023/12/02 08:58:09;;;;;;;12.25;9.07;;;0.70;94.20;;;;;;6205424;28;20545;-79
2023/12/02 09:01:10;;;;;;;11.52;9.18;;;0.70;94.30;;;;;;6199131;28;20051;-78
2023/12/02 09:04:12;;;;;;;11.83;9.57;;;0.70;94.30;;;;;;6202155;28;20049;-79
2023/12/02 09:07:14;;;;;;;18.30;9.90;;;0.70;94.20;;;;;;6203715;28;20518;-78
2023/12/02 09:10:16;;;;;;;10.65;9.32;;;0.80;94.30;;;;;;6199523;28;20054;-80
2023/12/02 09:13:43;;;;;;;12.50;10.02;;;0.70;94.20;;;;;;6204302;28;20047;-80
2023/12/02 09:16:47;;;;;;;13.77;11.43;;;0.70;94.20;;;;;;6203621;28;20500;-79
2023/12/02 09:19:55;;;;;;;13.90;11.25;;;0.70;94.10;;;;;;6205125;28;20054;-80
2023/12/02 09:23:01;;;;;;;14.15;8.35;;;0.70;94.20;;;;;;6204919;28;20121;-80
2023/12/02 09:26:25;;;;;;;10.73;8.50;;;0.80;94.10;;;;;;6207135;28;20058;-82
2023/12/02 09:29:34;;;;;;;13.30;9.65;;;0.70;94.00;;;;;;6199985;28;20141;-81
2023/12/02 09:32:46;;;;;;;10.15;8.73;;;0.80;94.10;;;;;;6200113;28;20046;-79
2023/12/02 09:35:53;;;;;;;11.65;8.18;;;0.80;94.10;;;;;;6203143;28;20048;-81
2023/12/02 09:38:55;;;;;;;11.18;9.98;;;0.80;94.10;;;;;;6202249;28;20061;-80
2023/12/02 09:42:03;;;;;;;10.57;8.70;;;0.80;94.10;;;;;;6197039;28;20526;-79
2023/12/02 09:45:08;;;;;;;12.18;10.10;;;0.80;94.10;;;;;;6200700;28;20062;-80
2023/12/02 09:48:20;;;;;;;12.32;7.88;;;0.90;94.10;;;;;;6199983;28;20041;-79
2023/12/02 09:51:32;;;;;;;11.68;9.10;;;0.90;94.00;;;;;;6206147;28;20057;-79
2023/12/02 09:54:44;;;;;;;13.55;9.13;;;0.90;94.00;;;;;;6201982;28;20117;-80
2023/12/02 09:57:53;;;;;;;12.60;8.93;;;0.90;94.00;;;;;;6194723;28;20049;-79
2023/12/02 10:01:07;;;;;;;16.45;9.95;;;0.90;94.00;;;;;;6185179;28;20047;-78
2023/12/02 10:04:24;;;;;;;14.10;9.20;;;0.90;93.90;;;;;;6180033;28;20053;-80
2023/12/02 10:07:36;;;;;;;11.68;9.00;;;1.00;94.00;;;;;;6223144;28;20048;-79
2023/12/02 10:10:44;;;;;;;14.40;10.55;;;1.00;94.00;;;;;;6194735;28;20046;-80
2023/12/02 10:13:53;;;;;;;15.02;10.80;;;1.00;93.90;;;;;;6197599;28;20046;-80
2023/12/02 10:16:57;;;;;;;10.88;9.02;;;1.00;93.90;;;;;;6199052;28;20047;-80
2023/12/02 10:20:09;;;;;;;10.73;8.50;;;1.00;93.80;;;;;;6206459;28;20038;-79
2023/12/02 10:23:20;;;;;;;10.73;8.27;;;1.00;93.90;;;;;;6204849;28;20046;-80
2023/12/02 10:26:26;;;;;;;10.88;9.05;;;1.00;93.90;;;;;;6197995;28;20087;-77
2023/12/02 10:29:33;;;;;;;11.65;9.20;;;1.00;93.90;;;;;;6201928;28;20053;-77
2023/12/02 10:32:50;;;;;;;13.77;8.95;;;1.00;93.80;;;;;;6198778;28;20055;-77
2023/12/02 10:35:56;;;;;;;11.98;9.18;;;1.00;93.90;;;;;;6202120;28;20042;-81
2023/12/02 10:39:09;;;;;;;13.77;9.60;;;1.00;93.90;;;;;;6195512;28;20057;-80
2023/12/02 10:42:19;;;;;;;15.18;11.02;;;1.00;93.90;;;;;;6203130;28;20397;-80
2023/12/02 10:45:22;;;;;;;18.55;13.05;;;1.00;93.90;;;;;;6202002;28;20061;-80
2023/12/02 10:48:25;;;;;;;12.32;10.52;;;1.00;93.80;;;;;;6199052;28;20049;-81
2023/12/02 10:51:28;;;;;;;13.35;9.98;;;0.90;93.80;;;;;;6201182;28;20236;-79
2023/12/02 10:54:34;;;;;;;12.43;10.35;;;0.90;93.80;;;;;;6201410;28;20060;-79
2023/12/02 10:57:36;;;;;;;15.90;12.13;;;0.90;93.80;;;;;;6201895;28;20046;-79
2023/12/02 11:00:42;;;;;;;10.50;8.45;;;0.90;93.80;;;;;;6201925;28;21496;-81
2023/12/02 11:03:52;;;;;;;10.40;9.03;;;0.90;93.80;;;;;;6204900;28;20049;-81
2023/12/02 11:06:58;;;;;;;11.05;7.72;;;0.90;93.80;;;;;;6195858;28;20046;-79
2023/12/02 11:10:03;;;;;;;11.85;8.90;;;1.00;93.80;;;;;;6194314;28;20053;-79
2023/12/02 11:13:12;;;;;;;13.57;9.30;;;1.00;93.80;;;;;;6197713;28;20054;-80
2023/12/02 11:16:22;;;;;;;13.95;9.30;;;1.00;93.80;;;;;;6197323;28;20050;-79
2023/12/02 11:19:39;;;;;;;11.70;8.38;;;1.10;93.80;;;;;;6192894;28;20058;-80
2023/12/02 11:23:06;;;;;;;10.88;7.72;;;1.10;93.80;;;;;;6194019;28;20555;-80
2023/12/02 11:26:21;;;;;;;10.40;7.72;;;1.10;93.70;;;;;;6189983;28;20053;-79
2023/12/02 11:29:34;;;;;;;10.82;7.38;;;1.20;93.80;;;;;;6198880;28;20053;-80
2023/12/02 11:32:51;;;;;;;11.38;8.07;;;1.20;93.70;;;;;;6203757;28;20046;-78
2023/12/02 11:36:04;;;;;;;10.30;8.43;;;1.20;93.70;;;;;;6202059;28;20043;-80
2023/12/02 11:39:16;;;;;;;10.35;8.25;;;1.20;93.70;;;;;;6198601;28;20050;-79
2023/12/02 11:42:18;;;;;;;9.30;7.03;;;1.30;93.70;;;;;;6200624;28;20043;-80
2023/12/02 11:45:26;;;;;;;7.40;6.30;;;1.30;93.70;;;;;;6215505;28;20107;-78
2023/12/02 11:48:36;;;;;;;8.75;7.03;;;1.30;93.70;;;;;;6200851;28;20038;-80
2023/12/02 11:51:51;;;;;;;8.85;7.35;;;1.30;93.50;;;;;;6212065;28;20052;-79
2023/12/02 11:55:16;;;;;;;8.50;6.18;;;1.30;93.60;;;;;;6200776;28;20419;-79
2023/12/02 11:58:26;;;;;;;7.93;6.15;;;1.30;93.60;;;;;;6203591;28;20042;-80
2023/12/02 12:01:42;;;;;;;9.65;6.60;;;1.30;93.50;;;;;;6204724;28;20047;-80
2023/12/02 12:05:11;;;;;;;7.45;6.13;;;1.30;93.40;;;;;;6203089;28;20432;-80
2023/12/02 12:08:19;;;;;;;6.75;5.75;;;1.30;93.50;;;;;;6198837;28;21221;-79
2023/12/02 12:11:21;;;;;;;;;;;1.30;93.40;;;;;;6201476;28;20045;-80
2023/12/02 12:14:22;;;;;;;5.15;4.65;;;1.30;93.50;;;;;;6198062;28;19930;-81
2023/12/02 12:17:24;;;;;;;5.90;5.30;;;1.20;93.40;;;;;;6205206;28;20050;-81
2023/12/02 12:20:26;;;;;;;8.38;6.07;;;1.20;93.50;;;;;;6202946;28;20054;-79
2023/12/02 12:23:31;;;;;;;7.15;5.38;;;1.10;93.50;;;;;;6206372;28;20053;-78
2023/12/02 12:26:32;;;;;;;8.50;6.55;;;1.20;93.50;;;;;;6197040;28;20081;-80
2023/12/02 12:29:34;;;;;;;9.90;6.18;;;1.20;93.40;;;;;;6199017;28;20038;-78
2023/12/02 12:32:37;;;;;;;7.85;7.00;;;1.20;93.50;;;;;;6206086;28;20050;-79
2023/12/02 12:35:39;;;;;;;7.40;6.25;;;1.20;93.50;;;;;;6203943;28;20062;-78
2023/12/02 12:38:45;;;;;;;7.05;6.15;;;1.10;93.40;;;;;;6208430;28;20042;-79
2023/12/02 12:41:48;;;;;;;10.10;6.28;;;1.10;93.40;;;;;;6202714;28;20740;-77
2023/12/02 12:44:50;;;;;;;6.35;5.70;;;1.10;93.40;;;;;;6213674;28;20080;-78
2023/12/02 12:47:54;;;;;;;7.43;6.25;;;1.10;93.40;;;;;;6216624;28;20060;-77
2023/12/02 12:50:59;;;;;;;8.45;6.55;;;1.10;93.40;;;;;;6208051;28;20054;-79
2023/12/02 12:54:06;;;;;;;19.55;11.88;;;1.10;93.50;;;;;;6204832;28;20057;-79
2023/12/02 12:57:11;;;;;;;8.43;6.40;;;1.20;93.40;;;;;;6198681;28;20073;-79
2023/12/02 13:00:16;;;;;;;8.30;6.22;;;1.10;93.40;;;;;;6199646;28;20046;-78
2023/12/02 13:03:31;;;;;;;6.60;5.07;;;1.10;93.30;;;;;;6183803;28;20042;-79
2023/12/02 13:06:44;;;;;;;5.90;5.30;;;1.10;93.20;;;;;;6192694;28;20366;-79
2023/12/02 13:09:49;;;;;;;9.35;6.50;;;1.10;93.30;;;;;;6205890;28;20046;-80
2023/12/02 13:12:52;;;;;;;6.85;5.72;;;1.10;93.40;;;;;;6205703;28;20073;-79
2023/12/02 13:15:55;;;;;;;6.68;5.55;;;1.10;93.40;;;;;;6180714;28;20674;-79
2023/12/02 13:19:00;;;;;;;11.25;7.97;;;1.10;93.40;;;;;;6193885;28;20039;-79
2023/12/02 13:22:03;;;;;;;7.13;6.38;;;1.10;93.40;;;;;;6179839;28;20057;-79
2023/12/02 13:25:13;;;;;;;9.63;8.05;;;1.10;93.30;;;;;;6196060;28;20055;-80
2023/12/02 13:28:22;;;;;;;8.55;7.13;;;1.10;93.30;;;;;;6190318;28;20042;-79
2023/12/02 13:31:26;;;;;;;7.72;7.00;;;1.10;93.40;;;;;;6185200;28;20050;-79
2023/12/02 13:34:39;;;;;;;7.10;6.40;;;1.10;93.30;;;;;;6188579;28;20129;-80
2023/12/02 13:37:45;;;;;;;6.75;5.25;;;1.10;93.70;;;;;;6204752;28;20050;-80
2023/12/02 13:40:58;;;;;;;8.27;6.88;;;1.10;93.30;;;;;;6203390;28;20125;-79
2023/12/02 13:44:04;;;;;;;7.82;6.32;;;1.00;93.30;;;;;;6196628;28;20115;-79
2023/12/02 13:47:16;;;;;;;9.07;5.75;;;1.00;93.30;;;;;;6202177;28;20046;-80
2023/12/02 13:50:19;;;;;;;8.18;7.25;;;1.00;93.40;;;;;;6197906;28;20043;-79
2023/12/02 13:53:31;;;;;;;8.13;6.68;;;1.00;93.30;;;;;;6202185;28;20047;-80
2023/12/02 13:56:44;;;;;;;7.53;5.85;;;1.00;93.30;;;;;;6199012;28;20054;-80
2023/12/02 13:59:49;;;;;;;7.50;6.00;;;1.00;93.30;;;;;;6209767;28;20129;-80
2023/12/02 14:03:02;;;;;;;8.18;6.10;;;1.00;93.40;;;;;;6197869;28;20412;-79
2023/12/02 14:06:11;;;;;;;8.98;6.82;;;0.90;93.30;;;;;;6190503;28;20050;-80
2023/12/02 14:09:20;;;;;;;10.25;6.43;;;0.90;93.30;;;;;;6195725;28;20073;-80
2023/12/02 14:12:54;;;;;;;8.45;6.22;;;0.90;93.30;;;;;;6200244;28;20046;-78
2023/12/02 14:16:28;;;;;;;9.73;7.20;;;0.80;93.30;;;;;;6197221;28;20054;-80
2023/12/02 14:19:49;;;;;;;6.80;5.93;;;0.80;93.40;;;;;;6198033;28;20052;-79
2023/12/02 14:23:15;;;;;;;7.88;6.65;;;0.80;93.40;;;;;;6199347;28;20050;-80
2023/12/02 14:26:47;;;;;;;9.05;6.35;;;0.80;93.40;;;;;;6204270;28;20060;-80
2023/12/02 14:30:04;;;;;;;8.63;7.72;;;0.80;93.40;;;;;;6199977;28;20048;-80
2023/12/02 14:33:35;;;;;;;9.70;7.32;;;0.80;93.40;;;;;;6197604;28;20050;-80
2023/12/02 14:37:00;;;;;;;11.15;7.72;;;0.80;93.40;;;;;;6197031;28;20095;-79
2023/12/02 14:40:19;;;;;;;11.00;8.25;;;0.70;93.40;;;;;;6201549;28;20142;-80
2023/12/02 14:43:32;;;;;;;7.38;5.78;;;0.70;93.70;;;;;;6216471;28;20062;-81
2023/12/02 14:46:35;;;;;;;7.28;6.53;;;0.70;93.30;;;;;;6186331;28;20089;-80
2023/12/02 14:49:39;;;;;;;8.85;6.90;;;0.70;93.30;;;;;;6209921;28;20047;-80
2023/12/02 14:52:44;;;;;;;9.43;6.05;;;0.60;93.30;;;;;;6191870;28;20042;-81
2023/12/02 14:55:46;;;;;;;7.03;5.53;;;0.60;93.30;;;;;;6201626;28;20038;-80
2023/12/02 14:58:47;;;;;;;7.88;5.95;;;0.60;93.30;;;;;;6203130;28;20058;-80
2023/12/02 15:01:55;;;;;;;8.88;7.28;;;0.50;93.20;;;;;;6199055;28;20049;-80
2023/12/02 15:04:57;;;;;;;7.82;6.38;;;0.50;93.20;;;;;;6202365;28;20584;-81
2023/12/02 15:07:58;;;;;;;24.00;19.67;;;0.50;93.30;;;;;;6197538;28;20419;-81
2023/12/02 15:11:01;;;;;;;16.38;13.45;;;0.50;93.30;;;;;;6198695;28;20042;-80
2023/12/02 15:14:03;;;;;;;7.78;6.82;;;0.50;93.30;;;;;;6202849;28;20507;-77
2023/12/02 15:17:09;;;;;;;8.15;6.38;;;0.50;93.30;;;;;;6202123;28;20384;-79
2023/12/02 15:20:12;;;;;;;9.68;6.90;;;0.50;93.30;;;;;;6196477;28;20050;-81
2023/12/02 15:23:37;;;;;;;8.20;6.07;;;0.50;93.30;;;;;;6200218;28;20120;-79
2023/12/02 15:26:39;;;;;;;8.02;6.50;;;0.50;93.20;;;;;;6200514;28;20046;-81
2023/12/02 15:29:40;;;;;;;8.55;5.75;;;0.50;93.20;;;;;;6199395;28;20502;-79
2023/12/02 15:32:45;;;;;;;8.38;6.45;;;0.40;93.20;;;;;;6204147;28;20042;-78
2023/12/02 15:35:47;;;;;;;6.47;5.43;;;0.50;93.20;;;;;;6197323;28;20038;-80
2023/12/02 15:38:51;;;;;;;8.30;6.65;;;0.40;93.20;;;;;;6200503;28;20038;-80
2023/12/02 15:41:52;;;;;;;8.82;6.63;;;0.40;93.20;;;;;;6196428;28;20058;-79
2023/12/02 15:44:54;;;;;;;10.65;6.57;;;0.40;93.20;;;;;;6197135;28;20054;-80
2023/12/02 15:47:57;;;;;;;8.65;6.90;;;0.40;93.20;;;;;;6203257;28;20118;-76
2023/12/02 15:50:59;;;;;;;8.75;7.07;;;0.40;93.20;;;;;;6192506;28;20050;-80
2023/12/02 15:54:03;;;;;;;8.50;6.60;;;0.40;93.20;;;;;;6195659;28;20061;-80
2023/12/02 15:57:05;;;;;;;8.88;6.72;;;0.40;93.10;;;;;;6200588;28;20526;-78